sensor_id;sensor_type;location;lat;lon;timestamp;P1;durP1;ratioP1;P2;durP2;ratioP2
67074;SDS011;53990;50.334;18.640;2023-05-07T00:00:30;20.00;;;14.00;;
67074;SDS011;53990;50.334;18.640;2023-05-07T00:03:18;21.30;;;14.90;;
67074;SDS011;53990;50.334;18.640;2023-05-07T00:05:46;23.10;;;16.80;;
67074;SDS011;53990;50.334;18.640;2023-05-07T00:08:13;24.50;;;17.50;;
67074;SDS011;53990;50.334;18.640;2023-05-07T00:10:40;23.50;;;17.60;;
67074;SDS011;53990;50.334;18.640;2023-05-07T00:13:08;22.80;;;17.60;;
67074;SDS011;53990;50.334;18.640;2023-05-07T00:15:35;21.00;;;16.60;;
67074;SDS011;53990;50.334;18.640;2023-05-07T00:18:02;20.80;;;16.20;;
67074;SDS011;53990;50.334;18.640;2023-05-07T00:20:30;22.30;;;16.10;;
67074;SDS011;53990;50.334;18.640;2023-05-07T00:22:57;19.90;;;15.50;;
67074;SDS011;53990;50.334;18.640;2023-05-07T00:25:24;21.10;;;15.80;;
67074;SDS011;53990;50.334;18.640;2023-05-07T00:27:51;24.20;;;16.40;;
67074;SDS011;53990;50.334;18.640;2023-05-07T00:30:19;21.40;;;15.00;;
67074;SDS011;53990;50.334;18.640;2023-05-07T00:32:46;20.60;;;16.00;;
67074;SDS011;53990;50.334;18.640;2023-05-07T00:35:15;22.00;;;15.00;;
67074;SDS011;53990;50.334;18.640;2023-05-07T00:37:43;23.30;;;15.00;;
67074;SDS011;53990;50.334;18.640;2023-05-07T00:40:10;21.50;;;15.40;;
67074;SDS011;53990;50.334;18.640;2023-05-07T00:42:37;23.80;;;15.40;;
67074;SDS011;53990;50.334;18.640;2023-05-07T00:45:05;22.00;;;14.90;;
67074;SDS011;53990;50.334;18.640;2023-05-07T00:47:34;19.70;;;14.40;;
67074;SDS011;53990;50.334;18.640;2023-05-07T00:50:02;22.50;;;15.50;;
67074;SDS011;53990;50.334;18.640;2023-05-07T00:52:30;20.80;;;15.00;;
67074;SDS011;53990;50.334;18.640;2023-05-07T00:54:59;20.00;;;14.30;;
67074;SDS011;53990;50.334;18.640;2023-05-07T00:57:28;18.50;;;13.80;;
67074;SDS011;53990;50.334;18.640;2023-05-07T00:59:55;18.10;;;13.90;;
67074;SDS011;53990;50.334;18.640;2023-05-07T01:02:23;21.70;;;15.00;;
67074;SDS011;53990;50.334;18.640;2023-05-07T01:04:50;25.30;;;16.20;;
67074;SDS011;53990;50.334;18.640;2023-05-07T01:07:17;22.90;;;16.60;;
67074;SDS011;53990;50.334;18.640;2023-05-07T01:09:45;25.50;;;16.70;;
67074;SDS011;53990;50.334;18.640;2023-05-07T01:12:12;25.10;;;17.00;;
67074;SDS011;53990;50.334;18.640;2023-05-07T01:14:40;28.20;;;17.30;;
67074;SDS011;53990;50.334;18.640;2023-05-07T01:17:07;23.00;;;15.80;;
67074;SDS011;53990;50.334;18.640;2023-05-07T01:19:35;21.70;;;15.40;;
67074;SDS011;53990;50.334;18.640;2023-05-07T01:22:08;21.20;;;14.90;;
67074;SDS011;53990;50.334;18.640;2023-05-07T01:24:36;21.40;;;15.30;;
67074;SDS011;53990;50.334;18.640;2023-05-07T01:27:04;19.90;;;14.40;;
67074;SDS011;53990;50.334;18.640;2023-05-07T01:29:31;20.30;;;15.10;;
67074;SDS011;53990;50.334;18.640;2023-05-07T01:32:00;23.50;;;14.90;;
67074;SDS011;53990;50.334;18.640;2023-05-07T01:34:30;23.20;;;14.30;;
67074;SDS011;53990;50.334;18.640;2023-05-07T01:36:59;22.50;;;15.50;;
67074;SDS011;53990;50.334;18.640;2023-05-07T01:39:28;22.30;;;14.20;;
67074;SDS011;53990;50.334;18.640;2023-05-07T01:41:55;19.00;;;13.60;;
67074;SDS011;53990;50.334;18.640;2023-05-07T01:44:23;20.70;;;14.00;;
67074;SDS011;53990;50.334;18.640;2023-05-07T01:46:51;19.00;;;14.20;;
67074;SDS011;53990;50.334;18.640;2023-05-07T01:49:18;19.50;;;14.10;;
67074;SDS011;53990;50.334;18.640;2023-05-07T01:51:46;18.40;;;13.50;;
67074;SDS011;53990;50.334;18.640;2023-05-07T01:54:13;17.20;;;11.70;;
67074;SDS011;53990;50.334;18.640;2023-05-07T01:56:41;16.30;;;11.40;;
67074;SDS011;53990;50.334;18.640;2023-05-07T01:59:08;16.50;;;11.40;;
67074;SDS011;53990;50.334;18.640;2023-05-07T02:01:36;14.40;;;10.90;;
67074;SDS011;53990;50.334;18.640;2023-05-07T02:04:03;16.50;;;10.50;;
67074;SDS011;53990;50.334;18.640;2023-05-07T02:06:31;16.90;;;10.20;;
67074;SDS011;53990;50.334;18.640;2023-05-07T02:08:58;16.00;;;9.80;;
67074;SDS011;53990;50.334;18.640;2023-05-07T02:11:26;13.40;;;9.30;;
67074;SDS011;53990;50.334;18.640;2023-05-07T02:13:53;13.00;;;9.00;;
67074;SDS011;53990;50.334;18.640;2023-05-07T02:16:21;13.00;;;9.50;;
67074;SDS011;53990;50.334;18.640;2023-05-07T02:18:49;13.90;;;9.90;;
67074;SDS011;53990;50.334;18.640;2023-05-07T02:21:16;14.20;;;9.00;;
67074;SDS011;53990;50.334;18.640;2023-05-07T02:23:43;14.40;;;9.50;;
67074;SDS011;53990;50.334;18.640;2023-05-07T02:26:11;12.60;;;9.20;;
67074;SDS011;53990;50.334;18.640;2023-05-07T02:28:38;12.40;;;9.10;;
67074;SDS011;53990;50.334;18.640;2023-05-07T02:31:05;12.80;;;8.40;;
67074;SDS011;53990;50.334;18.640;2023-05-07T02:33:33;10.60;;;7.80;;
67074;SDS011;53990;50.334;18.640;2023-05-07T02:36:06;8.10;;;6.30;;
67074;SDS011;53990;50.334;18.640;2023-05-07T02:38:34;9.10;;;6.10;;
67074;SDS011;53990;50.334;18.640;2023-05-07T02:41:01;8.60;;;5.70;;
67074;SDS011;53990;50.334;18.640;2023-05-07T02:43:28;8.80;;;6.00;;
67074;SDS011;53990;50.334;18.640;2023-05-07T02:48:29;7.40;;;4.90;;
67074;SDS011;53990;50.334;18.640;2023-05-07T02:50:58;8.30;;;5.20;;
67074;SDS011;53990;50.334;18.640;2023-05-07T02:53:26;6.90;;;4.70;;
67074;SDS011;53990;50.334;18.640;2023-05-07T02:55:54;8.10;;;4.90;;
67074;SDS011;53990;50.334;18.640;2023-05-07T02:58:21;6.80;;;4.60;;
67074;SDS011;53990;50.334;18.640;2023-05-07T03:00:49;4.90;;;4.10;;
67074;SDS011;53990;50.334;18.640;2023-05-07T03:03:16;6.70;;;4.00;;
67074;SDS011;53990;50.334;18.640;2023-05-07T03:05:44;5.60;;;3.60;;
67074;SDS011;53990;50.334;18.640;2023-05-07T03:08:11;7.80;;;3.60;;
67074;SDS011;53990;50.334;18.640;2023-05-07T03:10:38;5.10;;;3.40;;
67074;SDS011;53990;50.334;18.640;2023-05-07T03:13:06;6.00;;;3.20;;
67074;SDS011;53990;50.334;18.640;2023-05-07T03:15:33;5.90;;;3.40;;
67074;SDS011;53990;50.334;18.640;2023-05-07T03:18:00;4.80;;;3.40;;
67074;SDS011;53990;50.334;18.640;2023-05-07T03:20:28;5.80;;;3.40;;
67074;SDS011;53990;50.334;18.640;2023-05-07T03:22:55;6.70;;;4.00;;
67074;SDS011;53990;50.334;18.640;2023-05-07T03:25:22;6.60;;;3.90;;
67074;SDS011;53990;50.334;18.640;2023-05-07T03:27:49;6.50;;;4.10;;
67074;SDS011;53990;50.334;18.640;2023-05-07T03:30:17;6.80;;;3.90;;
67074;SDS011;53990;50.334;18.640;2023-05-07T03:32:44;6.10;;;4.10;;
67074;SDS011;53990;50.334;18.640;2023-05-07T03:35:11;7.60;;;5.30;;
67074;SDS011;53990;50.334;18.640;2023-05-07T03:37:38;6.60;;;4.50;;
67074;SDS011;53990;50.334;18.640;2023-05-07T03:40:06;4.80;;;3.50;;
67074;SDS011;53990;50.334;18.640;2023-05-07T03:42:34;5.40;;;3.60;;
67074;SDS011;53990;50.334;18.640;2023-05-07T03:45:02;7.00;;;4.60;;
67074;SDS011;53990;50.334;18.640;2023-05-07T03:47:29;6.80;;;4.10;;
67074;SDS011;53990;50.334;18.640;2023-05-07T03:49:57;6.60;;;3.70;;
67074;SDS011;53990;50.334;18.640;2023-05-07T03:52:24;9.40;;;4.10;;
67074;SDS011;53990;50.334;18.640;2023-05-07T03:54:53;5.90;;;3.70;;
67074;SDS011;53990;50.334;18.640;2023-05-07T03:57:20;5.20;;;3.50;;
67074;SDS011;53990;50.334;18.640;2023-05-07T03:59:47;6.00;;;3.90;;
67074;SDS011;53990;50.334;18.640;2023-05-07T04:02:15;5.70;;;3.90;;
67074;SDS011;53990;50.334;18.640;2023-05-07T04:04:42;7.30;;;4.30;;
67074;SDS011;53990;50.334;18.640;2023-05-07T04:07:09;6.60;;;3.60;;
67074;SDS011;53990;50.334;18.640;2023-05-07T04:09:36;6.00;;;3.90;;
67074;SDS011;53990;50.334;18.640;2023-05-07T04:12:04;6.90;;;4.00;;
67074;SDS011;53990;50.334;18.640;2023-05-07T04:14:31;7.80;;;4.10;;
67074;SDS011;53990;50.334;18.640;2023-05-07T04:17:01;7.60;;;3.80;;
67074;SDS011;53990;50.334;18.640;2023-05-07T04:19:30;5.70;;;3.60;;
67074;SDS011;53990;50.334;18.640;2023-05-07T04:21:57;5.40;;;3.30;;
67074;SDS011;53990;50.334;18.640;2023-05-07T04:24:24;6.30;;;3.70;;
67074;SDS011;53990;50.334;18.640;2023-05-07T04:26:51;7.70;;;4.20;;
67074;SDS011;53990;50.334;18.640;2023-05-07T04:29:19;6.00;;;3.80;;
67074;SDS011;53990;50.334;18.640;2023-05-07T04:31:48;6.60;;;3.70;;
67074;SDS011;53990;50.334;18.640;2023-05-07T04:34:15;8.50;;;3.90;;
67074;SDS011;53990;50.334;18.640;2023-05-07T04:36:42;6.30;;;3.60;;
67074;SDS011;53990;50.334;18.640;2023-05-07T04:39:10;5.90;;;4.00;;
67074;SDS011;53990;50.334;18.640;2023-05-07T04:41:37;6.40;;;3.80;;
67074;SDS011;53990;50.334;18.640;2023-05-07T04:44:04;7.00;;;3.70;;
67074;SDS011;53990;50.334;18.640;2023-05-07T04:46:32;6.80;;;3.80;;
67074;SDS011;53990;50.334;18.640;2023-05-07T04:49:00;7.30;;;3.60;;
67074;SDS011;53990;50.334;18.640;2023-05-07T04:51:27;6.80;;;4.30;;
67074;SDS011;53990;50.334;18.640;2023-05-07T04:53:55;7.20;;;4.90;;
67074;SDS011;53990;50.334;18.640;2023-05-07T04:56:22;8.60;;;5.90;;
67074;SDS011;53990;50.334;18.640;2023-05-07T04:58:49;7.50;;;4.80;;
67074;SDS011;53990;50.334;18.640;2023-05-07T05:01:16;8.90;;;4.80;;
67074;SDS011;53990;50.334;18.640;2023-05-07T05:03:43;7.10;;;4.30;;
67074;SDS011;53990;50.334;18.640;2023-05-07T05:06:11;5.70;;;3.90;;
67074;SDS011;53990;50.334;18.640;2023-05-07T05:08:38;7.10;;;3.80;;
67074;SDS011;53990;50.334;18.640;2023-05-07T05:11:05;6.20;;;4.30;;
67074;SDS011;53990;50.334;18.640;2023-05-07T05:13:32;6.90;;;3.80;;
67074;SDS011;53990;50.334;18.640;2023-05-07T05:16:00;6.50;;;4.20;;
67074;SDS011;53990;50.334;18.640;2023-05-07T05:18:27;6.50;;;4.20;;
67074;SDS011;53990;50.334;18.640;2023-05-07T05:20:54;6.30;;;4.30;;
67074;SDS011;53990;50.334;18.640;2023-05-07T05:23:22;8.20;;;5.50;;
67074;SDS011;53990;50.334;18.640;2023-05-07T05:25:49;7.50;;;4.90;;
67074;SDS011;53990;50.334;18.640;2023-05-07T05:28:16;6.30;;;5.40;;
67074;SDS011;53990;50.334;18.640;2023-05-07T05:30:44;6.70;;;5.20;;
67074;SDS011;53990;50.334;18.640;2023-05-07T05:33:11;8.20;;;5.80;;
67074;SDS011;53990;50.334;18.640;2023-05-07T05:35:38;8.60;;;6.60;;
67074;SDS011;53990;50.334;18.640;2023-05-07T05:38:05;9.60;;;7.20;;
67074;SDS011;53990;50.334;18.640;2023-05-07T05:40:32;10.40;;;7.40;;
67074;SDS011;53990;50.334;18.640;2023-05-07T05:43:00;11.20;;;8.10;;
67074;SDS011;53990;50.334;18.640;2023-05-07T05:45:27;10.90;;;8.90;;
67074;SDS011;53990;50.334;18.640;2023-05-07T05:47:56;11.80;;;9.50;;
67074;SDS011;53990;50.334;18.640;2023-05-07T05:50:24;14.60;;;10.20;;
67074;SDS011;53990;50.334;18.640;2023-05-07T05:52:52;13.10;;;9.80;;
67074;SDS011;53990;50.334;18.640;2023-05-07T05:55:19;14.00;;;9.90;;
67074;SDS011;53990;50.334;18.640;2023-05-07T05:57:46;13.50;;;10.20;;
67074;SDS011;53990;50.334;18.640;2023-05-07T06:00:14;14.30;;;10.30;;
67074;SDS011;53990;50.334;18.640;2023-05-07T06:02:43;14.30;;;10.70;;
67074;SDS011;53990;50.334;18.640;2023-05-07T06:05:10;14.60;;;10.20;;
67074;SDS011;53990;50.334;18.640;2023-05-07T06:07:37;12.60;;;10.10;;
67074;SDS011;53990;50.334;18.640;2023-05-07T06:10:05;13.20;;;10.80;;
67074;SDS011;53990;50.334;18.640;2023-05-07T06:12:32;12.50;;;9.90;;
67074;SDS011;53990;50.334;18.640;2023-05-07T06:15:00;15.20;;;11.10;;
67074;SDS011;53990;50.334;18.640;2023-05-07T06:17:27;16.30;;;11.80;;
67074;SDS011;53990;50.334;18.640;2023-05-07T06:19:54;15.70;;;11.50;;
67074;SDS011;53990;50.334;18.640;2023-05-07T06:22:22;13.60;;;10.20;;
67074;SDS011;53990;50.334;18.640;2023-05-07T06:24:49;14.40;;;10.20;;
67074;SDS011;53990;50.334;18.640;2023-05-07T06:27:16;13.90;;;10.10;;
67074;SDS011;53990;50.334;18.640;2023-05-07T06:29:43;14.00;;;9.90;;
67074;SDS011;53990;50.334;18.640;2023-05-07T06:32:12;12.50;;;9.60;;
67074;SDS011;53990;50.334;18.640;2023-05-07T06:34:40;11.50;;;8.90;;
67074;SDS011;53990;50.334;18.640;2023-05-07T06:37:08;12.50;;;9.30;;
67074;SDS011;53990;50.334;18.640;2023-05-07T06:39:35;14.40;;;10.70;;
67074;SDS011;53990;50.334;18.640;2023-05-07T06:42:02;11.80;;;9.70;;
67074;SDS011;53990;50.334;18.640;2023-05-07T06:44:31;15.90;;;10.20;;
67074;SDS011;53990;50.334;18.640;2023-05-07T06:46:58;11.80;;;9.00;;
67074;SDS011;53990;50.334;18.640;2023-05-07T06:49:26;11.20;;;8.30;;
67074;SDS011;53990;50.334;18.640;2023-05-07T06:51:53;9.80;;;7.40;;
67074;SDS011;53990;50.334;18.640;2023-05-07T06:54:20;8.00;;;6.70;;
67074;SDS011;53990;50.334;18.640;2023-05-07T06:56:48;8.40;;;6.00;;
67074;SDS011;53990;50.334;18.640;2023-05-07T06:59:15;7.40;;;5.70;;
67074;SDS011;53990;50.334;18.640;2023-05-07T07:01:42;7.10;;;5.50;;
67074;SDS011;53990;50.334;18.640;2023-05-07T07:04:10;6.70;;;4.60;;
67074;SDS011;53990;50.334;18.640;2023-05-07T07:06:37;6.60;;;4.20;;
67074;SDS011;53990;50.334;18.640;2023-05-07T07:09:04;7.70;;;4.70;;
67074;SDS011;53990;50.334;18.640;2023-05-07T07:11:32;5.90;;;3.90;;
67074;SDS011;53990;50.334;18.640;2023-05-07T07:13:59;5.60;;;3.90;;
67074;SDS011;53990;50.334;18.640;2023-05-07T07:16:26;6.40;;;4.50;;
67074;SDS011;53990;50.334;18.640;2023-05-07T07:18:53;6.40;;;4.80;;
67074;SDS011;53990;50.334;18.640;2023-05-07T07:21:21;7.00;;;5.10;;
67074;SDS011;53990;50.334;18.640;2023-05-07T07:23:48;7.60;;;5.40;;
67074;SDS011;53990;50.334;18.640;2023-05-07T07:26:15;7.80;;;6.10;;
67074;SDS011;53990;50.334;18.640;2023-05-07T07:28:44;7.50;;;5.70;;
67074;SDS011;53990;50.334;18.640;2023-05-07T07:31:12;7.30;;;6.10;;
67074;SDS011;53990;50.334;18.640;2023-05-07T07:33:39;8.80;;;5.70;;
67074;SDS011;53990;50.334;18.640;2023-05-07T07:36:07;7.70;;;5.30;;
67074;SDS011;53990;50.334;18.640;2023-05-07T07:38:34;6.20;;;4.50;;
67074;SDS011;53990;50.334;18.640;2023-05-07T07:41:02;6.30;;;4.60;;
67074;SDS011;53990;50.334;18.640;2023-05-07T07:43:29;5.40;;;3.70;;
67074;SDS011;53990;50.334;18.640;2023-05-07T07:45:56;5.50;;;3.40;;
67074;SDS011;53990;50.334;18.640;2023-05-07T07:48:24;5.50;;;3.40;;
67074;SDS011;53990;50.334;18.640;2023-05-07T07:50:51;4.20;;;3.20;;
67074;SDS011;53990;50.334;18.640;2023-05-07T07:53:19;5.40;;;3.30;;
67074;SDS011;53990;50.334;18.640;2023-05-07T07:55:46;5.40;;;3.50;;
67074;SDS011;53990;50.334;18.640;2023-05-07T07:58:13;4.80;;;3.20;;
67074;SDS011;53990;50.334;18.640;2023-05-07T08:00:41;4.40;;;3.40;;
67074;SDS011;53990;50.334;18.640;2023-05-07T08:03:11;4.40;;;3.10;;
67074;SDS011;53990;50.334;18.640;2023-05-07T08:05:47;3.90;;;2.90;;
67074;SDS011;53990;50.334;18.640;2023-05-07T08:08:16;5.10;;;3.50;;
67074;SDS011;53990;50.334;18.640;2023-05-07T08:10:44;5.40;;;3.60;;
67074;SDS011;53990;50.334;18.640;2023-05-07T08:13:11;5.50;;;4.10;;
67074;SDS011;53990;50.334;18.640;2023-05-07T08:15:38;5.20;;;4.00;;
67074;SDS011;53990;50.334;18.640;2023-05-07T08:18:06;7.10;;;4.60;;
67074;SDS011;53990;50.334;18.640;2023-05-07T08:20:33;5.20;;;4.40;;
67074;SDS011;53990;50.334;18.640;2023-05-07T08:23:04;7.30;;;5.00;;
67074;SDS011;53990;50.334;18.640;2023-05-07T08:25:33;7.10;;;4.40;;
67074;SDS011;53990;50.334;18.640;2023-05-07T08:28:01;5.70;;;4.00;;
67074;SDS011;53990;50.334;18.640;2023-05-07T08:30:28;4.40;;;3.10;;
67074;SDS011;53990;50.334;18.640;2023-05-07T08:32:56;4.30;;;3.00;;
67074;SDS011;53990;50.334;18.640;2023-05-07T08:35:23;5.20;;;3.80;;
67074;SDS011;53990;50.334;18.640;2023-05-07T08:37:50;5.20;;;3.60;;
67074;SDS011;53990;50.334;18.640;2023-05-07T08:40:18;4.30;;;3.10;;
67074;SDS011;53990;50.334;18.640;2023-05-07T08:42:49;8.70;;;4.10;;
67074;SDS011;53990;50.334;18.640;2023-05-07T08:45:19;4.60;;;3.60;;
67074;SDS011;53990;50.334;18.640;2023-05-07T08:47:51;5.50;;;3.90;;
67074;SDS011;53990;50.334;18.640;2023-05-07T08:50:20;5.00;;;3.50;;
67074;SDS011;53990;50.334;18.640;2023-05-07T08:52:47;5.20;;;3.90;;
67074;SDS011;53990;50.334;18.640;2023-05-07T08:55:15;5.90;;;3.90;;
67074;SDS011;53990;50.334;18.640;2023-05-07T08:57:43;4.90;;;3.50;;
67074;SDS011;53990;50.334;18.640;2023-05-07T09:00:11;4.00;;;2.70;;
67074;SDS011;53990;50.334;18.640;2023-05-07T09:02:38;3.90;;;2.60;;
67074;SDS011;53990;50.334;18.640;2023-05-07T09:05:06;4.70;;;3.00;;
67074;SDS011;53990;50.334;18.640;2023-05-07T09:07:34;4.30;;;2.60;;
67074;SDS011;53990;50.334;18.640;2023-05-07T09:10:03;4.30;;;3.20;;
67074;SDS011;53990;50.334;18.640;2023-05-07T09:12:31;4.00;;;3.00;;
67074;SDS011;53990;50.334;18.640;2023-05-07T09:14:59;5.30;;;3.40;;
67074;SDS011;53990;50.334;18.640;2023-05-07T09:17:26;4.20;;;3.30;;
67074;SDS011;53990;50.334;18.640;2023-05-07T09:19:53;3.80;;;2.80;;
67074;SDS011;53990;50.334;18.640;2023-05-07T09:22:20;4.50;;;3.30;;
67074;SDS011;53990;50.334;18.640;2023-05-07T09:24:49;3.90;;;2.80;;
67074;SDS011;53990;50.334;18.640;2023-05-07T09:27:17;4.60;;;3.40;;
67074;SDS011;53990;50.334;18.640;2023-05-07T09:29:45;4.50;;;3.50;;
67074;SDS011;53990;50.334;18.640;2023-05-07T09:32:14;4.20;;;3.00;;
67074;SDS011;53990;50.334;18.640;2023-05-07T09:34:41;4.80;;;3.60;;
67074;SDS011;53990;50.334;18.640;2023-05-07T09:37:09;5.90;;;3.10;;
67074;SDS011;53990;50.334;18.640;2023-05-07T09:39:46;4.70;;;3.40;;
67074;SDS011;53990;50.334;18.640;2023-05-07T09:42:14;6.00;;;3.90;;
67074;SDS011;53990;50.334;18.640;2023-05-07T09:44:43;4.70;;;3.50;;
67074;SDS011;53990;50.334;18.640;2023-05-07T09:47:11;4.60;;;3.50;;
67074;SDS011;53990;50.334;18.640;2023-05-07T09:49:47;5.00;;;3.40;;
67074;SDS011;53990;50.334;18.640;2023-05-07T09:52:14;4.60;;;3.30;;
67074;SDS011;53990;50.334;18.640;2023-05-07T09:54:43;5.00;;;3.60;;
67074;SDS011;53990;50.334;18.640;2023-05-07T09:57:11;4.70;;;3.00;;
67074;SDS011;53990;50.334;18.640;2023-05-07T09:59:42;3.90;;;2.60;;
67074;SDS011;53990;50.334;18.640;2023-05-07T10:02:11;5.20;;;3.70;;
67074;SDS011;53990;50.334;18.640;2023-05-07T10:04:39;4.90;;;3.70;;
67074;SDS011;53990;50.334;18.640;2023-05-07T10:07:08;4.80;;;2.90;;
67074;SDS011;53990;50.334;18.640;2023-05-07T10:09:36;4.80;;;3.20;;
67074;SDS011;53990;50.334;18.640;2023-05-07T10:12:06;6.80;;;3.80;;
67074;SDS011;53990;50.334;18.640;2023-05-07T10:14:34;4.00;;;3.00;;
67074;SDS011;53990;50.334;18.640;2023-05-07T10:17:02;4.30;;;2.70;;
67074;SDS011;53990;50.334;18.640;2023-05-07T10:19:30;3.50;;;2.20;;
67074;SDS011;53990;50.334;18.640;2023-05-07T10:22:03;3.70;;;2.70;;
67074;SDS011;53990;50.334;18.640;2023-05-07T10:24:32;4.20;;;2.90;;
67074;SDS011;53990;50.334;18.640;2023-05-07T10:27:04;4.30;;;3.20;;
67074;SDS011;53990;50.334;18.640;2023-05-07T10:29:35;4.30;;;3.60;;
67074;SDS011;53990;50.334;18.640;2023-05-07T10:32:14;5.00;;;3.40;;
67074;SDS011;53990;50.334;18.640;2023-05-07T10:34:47;5.20;;;3.30;;
67074;SDS011;53990;50.334;18.640;2023-05-07T10:37:16;5.80;;;4.60;;
67074;SDS011;53990;50.334;18.640;2023-05-07T10:39:44;9.60;;;7.30;;
67074;SDS011;53990;50.334;18.640;2023-05-07T10:42:13;7.80;;;6.80;;
67074;SDS011;53990;50.334;18.640;2023-05-07T10:44:41;7.80;;;6.70;;
67074;SDS011;53990;50.334;18.640;2023-05-07T10:47:10;8.60;;;7.00;;
67074;SDS011;53990;50.334;18.640;2023-05-07T10:52:16;8.70;;;5.60;;
67074;SDS011;53990;50.334;18.640;2023-05-07T10:54:44;6.30;;;4.80;;
67074;SDS011;53990;50.334;18.640;2023-05-07T10:59:58;6.10;;;4.70;;
67074;SDS011;53990;50.334;18.640;2023-05-07T11:05:42;6.70;;;5.60;;
67074;SDS011;53990;50.334;18.640;2023-05-07T11:08:09;7.10;;;5.10;;
67074;SDS011;53990;50.334;18.640;2023-05-07T11:10:55;8.70;;;5.90;;
67074;SDS011;53990;50.334;18.640;2023-05-07T11:13:59;9.00;;;6.00;;
67074;SDS011;53990;50.334;18.640;2023-05-07T11:16:26;5.30;;;4.00;;
67074;SDS011;53990;50.334;18.640;2023-05-07T11:18:55;6.00;;;3.80;;
67074;SDS011;53990;50.334;18.640;2023-05-07T11:21:36;6.40;;;4.30;;
67074;SDS011;53990;50.334;18.640;2023-05-07T11:24:04;6.90;;;4.30;;
67074;SDS011;53990;50.334;18.640;2023-05-07T11:26:44;5.60;;;3.70;;
67074;SDS011;53990;50.334;18.640;2023-05-07T11:29:20;6.60;;;4.20;;
67074;SDS011;53990;50.334;18.640;2023-05-07T11:31:54;4.70;;;3.40;;
67074;SDS011;53990;50.334;18.640;2023-05-07T11:34:24;5.80;;;3.80;;
67074;SDS011;53990;50.334;18.640;2023-05-07T11:36:52;5.70;;;3.90;;
67074;SDS011;53990;50.334;18.640;2023-05-07T11:39:28;5.90;;;3.70;;
67074;SDS011;53990;50.334;18.640;2023-05-07T11:44:24;4.80;;;3.90;;
67074;SDS011;53990;50.334;18.640;2023-05-07T11:46:51;5.20;;;3.60;;
67074;SDS011;53990;50.334;18.640;2023-05-07T11:49:18;6.40;;;3.50;;
67074;SDS011;53990;50.334;18.640;2023-05-07T11:51:46;4.30;;;3.80;;
67074;SDS011;53990;50.334;18.640;2023-05-07T11:54:15;7.00;;;4.40;;
67074;SDS011;53990;50.334;18.640;2023-05-07T11:56:43;6.00;;;4.50;;
67074;SDS011;53990;50.334;18.640;2023-05-07T11:59:11;7.70;;;4.30;;
67074;SDS011;53990;50.334;18.640;2023-05-07T12:01:38;5.50;;;3.90;;
67074;SDS011;53990;50.334;18.640;2023-05-07T12:04:06;5.80;;;3.60;;
67074;SDS011;53990;50.334;18.640;2023-05-07T12:06:36;5.60;;;3.90;;
67074;SDS011;53990;50.334;18.640;2023-05-07T12:09:03;5.80;;;3.50;;
67074;SDS011;53990;50.334;18.640;2023-05-07T12:11:31;4.60;;;3.50;;
67074;SDS011;53990;50.334;18.640;2023-05-07T12:13:59;4.50;;;3.60;;
67074;SDS011;53990;50.334;18.640;2023-05-07T12:16:27;4.60;;;3.30;;
67074;SDS011;53990;50.334;18.640;2023-05-07T12:18:54;5.20;;;3.20;;
67074;SDS011;53990;50.334;18.640;2023-05-07T12:21:23;4.50;;;3.50;;
67074;SDS011;53990;50.334;18.640;2023-05-07T12:23:50;4.70;;;3.40;;
67074;SDS011;53990;50.334;18.640;2023-05-07T12:26:20;5.80;;;3.80;;
67074;SDS011;53990;50.334;18.640;2023-05-07T12:28:48;5.10;;;3.60;;
67074;SDS011;53990;50.334;18.640;2023-05-07T12:31:15;5.50;;;4.00;;
67074;SDS011;53990;50.334;18.640;2023-05-07T12:33:43;5.30;;;3.50;;
67074;SDS011;53990;50.334;18.640;2023-05-07T12:36:12;4.50;;;3.40;;
67074;SDS011;53990;50.334;18.640;2023-05-07T12:38:40;5.50;;;3.30;;
67074;SDS011;53990;50.334;18.640;2023-05-07T12:41:09;5.60;;;4.00;;
67074;SDS011;53990;50.334;18.640;2023-05-07T12:43:37;7.20;;;4.80;;
67074;SDS011;53990;50.334;18.640;2023-05-07T12:46:06;5.90;;;4.10;;
67074;SDS011;53990;50.334;18.640;2023-05-07T12:48:36;7.40;;;4.30;;
67074;SDS011;53990;50.334;18.640;2023-05-07T12:51:04;6.60;;;4.20;;
67074;SDS011;53990;50.334;18.640;2023-05-07T12:53:33;5.30;;;3.80;;
67074;SDS011;53990;50.334;18.640;2023-05-07T12:56:00;5.50;;;3.90;;
67074;SDS011;53990;50.334;18.640;2023-05-07T12:58:29;5.80;;;4.10;;
67074;SDS011;53990;50.334;18.640;2023-05-07T13:01:00;6.30;;;3.90;;
67074;SDS011;53990;50.334;18.640;2023-05-07T13:03:29;6.50;;;4.20;;
67074;SDS011;53990;50.334;18.640;2023-05-07T13:05:59;5.90;;;4.00;;
67074;SDS011;53990;50.334;18.640;2023-05-07T13:08:34;7.30;;;5.00;;
67074;SDS011;53990;50.334;18.640;2023-05-07T13:11:04;6.20;;;4.30;;
67074;SDS011;53990;50.334;18.640;2023-05-07T13:13:32;6.40;;;3.80;;
67074;SDS011;53990;50.334;18.640;2023-05-07T13:16:01;6.50;;;4.00;;
67074;SDS011;53990;50.334;18.640;2023-05-07T13:18:30;7.40;;;5.20;;
67074;SDS011;53990;50.334;18.640;2023-05-07T13:20:57;6.60;;;4.40;;
67074;SDS011;53990;50.334;18.640;2023-05-07T13:23:25;5.80;;;3.90;;
67074;SDS011;53990;50.334;18.640;2023-05-07T13:25:52;5.20;;;4.00;;
67074;SDS011;53990;50.334;18.640;2023-05-07T13:28:21;5.80;;;4.20;;
67074;SDS011;53990;50.334;18.640;2023-05-07T13:30:49;6.10;;;3.90;;
67074;SDS011;53990;50.334;18.640;2023-05-07T13:33:18;7.10;;;4.70;;
67074;SDS011;53990;50.334;18.640;2023-05-07T13:35:46;6.80;;;5.10;;
67074;SDS011;53990;50.334;18.640;2023-05-07T13:38:13;7.70;;;4.10;;
67074;SDS011;53990;50.334;18.640;2023-05-07T13:40:42;5.20;;;3.70;;
67074;SDS011;53990;50.334;18.640;2023-05-07T13:43:10;5.00;;;4.10;;
67074;SDS011;53990;50.334;18.640;2023-05-07T13:45:37;4.90;;;3.40;;
67074;SDS011;53990;50.334;18.640;2023-05-07T13:48:05;6.00;;;4.10;;
67074;SDS011;53990;50.334;18.640;2023-05-07T13:50:32;4.90;;;3.40;;
67074;SDS011;53990;50.334;18.640;2023-05-07T13:53:00;5.50;;;4.00;;
67074;SDS011;53990;50.334;18.640;2023-05-07T13:55:28;5.40;;;3.80;;
67074;SDS011;53990;50.334;18.640;2023-05-07T13:58:01;7.00;;;4.00;;
67074;SDS011;53990;50.334;18.640;2023-05-07T14:00:29;5.00;;;3.50;;
67074;SDS011;53990;50.334;18.640;2023-05-07T14:02:56;5.80;;;4.30;;
67074;SDS011;53990;50.334;18.640;2023-05-07T14:05:24;7.60;;;4.10;;
67074;SDS011;53990;50.334;18.640;2023-05-07T14:07:52;4.30;;;3.50;;
67074;SDS011;53990;50.334;18.640;2023-05-07T14:10:19;5.50;;;4.00;;
67074;SDS011;53990;50.334;18.640;2023-05-07T14:12:47;5.10;;;3.90;;
67074;SDS011;53990;50.334;18.640;2023-05-07T14:15:15;5.80;;;4.10;;
67074;SDS011;53990;50.334;18.640;2023-05-07T14:17:43;5.40;;;3.80;;
67074;SDS011;53990;50.334;18.640;2023-05-07T14:20:11;6.10;;;4.00;;
67074;SDS011;53990;50.334;18.640;2023-05-07T14:22:40;5.10;;;3.40;;
67074;SDS011;53990;50.334;18.640;2023-05-07T14:25:07;8.00;;;4.20;;
67074;SDS011;53990;50.334;18.640;2023-05-07T14:27:39;5.60;;;4.20;;
67074;SDS011;53990;50.334;18.640;2023-05-07T14:30:07;7.80;;;4.80;;
67074;SDS011;53990;50.334;18.640;2023-05-07T14:32:35;8.30;;;4.60;;
67074;SDS011;53990;50.334;18.640;2023-05-07T14:35:03;7.80;;;4.40;;
67074;SDS011;53990;50.334;18.640;2023-05-07T14:37:30;6.00;;;4.10;;
67074;SDS011;53990;50.334;18.640;2023-05-07T14:39:57;6.70;;;4.40;;
67074;SDS011;53990;50.334;18.640;2023-05-07T14:42:25;7.90;;;4.70;;
67074;SDS011;53990;50.334;18.640;2023-05-07T14:44:52;6.60;;;4.50;;
67074;SDS011;53990;50.334;18.640;2023-05-07T14:47:20;8.60;;;5.00;;